| time (UTC) | temp F | wind direction | speed MPH | gust MPH | rain 1hr in | rain 24hr in | rain mn in | humidity % | barometer mb |
| 20260507090704 | 46 | 286 | 1.0 | 3.0 | 0.00 | 0.31 | 0.00 | 85 | 1008.9 |
| 20260507090204 | 47 | 324 | 0.0 | 3.0 | 0.00 | 0.31 | 0.00 | 86 | 1009.3 |
| 20260507085704 | 47 | 326 | 3.0 | 12.0 | 0.00 | 0.31 | 0.00 | 86 | 1009.2 |
| 20260507085203 | 47 | 324 | 2.0 | 10.0 | 0.00 | 0.31 | 0.00 | 87 | 1009.2 |
| 20260507084203 | 47 | 293 | 1.0 | 3.0 | 0.00 | 0.31 | 0.00 | 87 | 1009.4 |
| 20260507083703 | 47 | 293 | 0.0 | 3.0 | 0.00 | 0.31 | 0.00 | 88 | 1009.3 |
| 20260507083203 | 47 | 289 | 0.0 | 3.0 | 0.00 | 0.31 | 0.00 | 88 | 1009.6 |
| 20260507082704 | 47 | 289 | 0.0 | 2.0 | 0.00 | 0.31 | 0.00 | 88 | 1009.4 |
| 20260507082203 | 47 | 289 | 0.0 | 2.0 | 0.00 | 0.31 | 0.00 | 88 | 1009.5 |
| 20260507081703 | 47 | 289 | 0.0 | 2.0 | 0.00 | 0.31 | 0.00 | 88 | 1009.5 |
| 20260507081203 | 47 | 289 | 1.0 | 2.0 | 0.00 | 0.31 | 0.00 | 88 | 1009.5 |
| 20260507080705 | 47 | 289 | 0.0 | 0.0 | 0.00 | 0.31 | 0.00 | 88 | 1009.5 |
| 20260507080203 | 47 | 289 | 0.0 | 1.0 | 0.00 | 0.31 | 0.00 | 88 | 1009.5 |
| 20260507075704 | 47 | 289 | 0.0 | 1.0 | 0.00 | 0.31 | 0.00 | 88 | 1009.4 |
| 20260507075204 | 47 | 289 | 0.0 | 0.0 | 0.00 | 0.31 | 0.00 | 87 | 1009.4 |
| 20260507074703 | 47 | 289 | 0.0 | 1.0 | 0.00 | 0.31 | 0.00 | 88 | 1009.5 |
| 20260507074203 | 47 | 289 | 0.0 | 0.0 | 0.00 | 0.31 | 0.00 | 87 | 1009.4 |
| 20260507073703 | 47 | 289 | 1.0 | 1.0 | 0.00 | 0.31 | 0.00 | 87 | 1009.3 |
| 20260507073203 | 47 | 289 | 0.0 | 0.0 | 0.00 | 0.31 | 0.00 | 87 | 1009.3 |
| 20260507072704 | 47 | 289 | 0.0 | 0.0 | 0.00 | 0.31 | 0.00 | 87 | 1009.2 |
| 20260507072203 | 47 | 289 | 0.0 | 0.0 | 0.00 | 0.31 | 0.00 | 87 | 1009.0 |
| 20260507071703 | 47 | 289 | 0.0 | 1.0 | 0.00 | 0.31 | 0.00 | 87 | 1009.0 |
| 20260507071204 | 47 | 289 | 1.0 | 2.0 | 0.00 | 0.31 | 0.00 | 87 | 1008.7 |
| 20260507070204 | 47 | 289 | 0.0 | 1.0 | 0.00 | 0.31 | 0.00 | 87 | 1008.5 |
| 20260507065704 | 47 | 289 | 0.0 | 1.0 | 0.00 | 0.31 | 0.00 | 87 | 1008.6 |
| 20260507065204 | 47 | 289 | 0.0 | 0.0 | 0.00 | 0.31 | 0.00 | 87 | 1008.5 |
| 20260507064704 | 47 | 289 | 0.0 | 2.0 | 0.00 | 0.31 | 0.00 | 87 | 1008.4 |
| 20260507064204 | 48 | 289 | 1.0 | 2.0 | 0.00 | 0.31 | 0.00 | 87 | 1008.5 |
| 20260507063704 | 48 | 289 | 1.0 | 2.0 | 0.00 | 0.31 | 0.00 | 87 | 1008.4 |
| 20260507063204 | 48 | 289 | 0.0 | 2.0 | 0.00 | 0.31 | 0.00 | 87 | 1008.5 |
| 20260507062704 | 48 | 289 | 0.0 | 1.0 | 0.00 | 0.31 | 0.00 | 87 | 1008.4 |
| 20260507061704 | 48 | 289 | 0.0 | 1.0 | 0.00 | 0.31 | 0.00 | 87 | 1008.6 |
| 20260507061204 | 48 | 289 | 0.0 | 1.0 | 0.00 | 0.31 | 0.00 | 87 | 1008.6 |
| 20260507060704 | 48 | 289 | 1.0 | 3.0 | 0.00 | 0.31 | 0.00 | 87 | 1008.5 |
| 20260507060205 | 48 | 289 | 1.0 | 2.0 | 0.00 | 0.31 | 0.00 | 87 | 1008.2 |
| 20260507055704 | 48 | 289 | 0.0 | 2.0 | 0.00 | 0.31 | 0.00 | 87 | 1008.4 |
| 20260507055204 | 48 | 289 | 2.0 | 3.0 | 0.00 | 0.31 | 0.00 | 87 | 1008.3 |
| 20260507054204 | 48 | 289 | 0.0 | 2.0 | 0.00 | 0.31 | 0.00 | 87 | 1008.4 |
| 20260507053704 | 48 | 289 | 0.0 | 3.0 | 0.00 | 0.31 | 0.00 | 87 | 1008.7 |
| 20260507053204 | 48 | 281 | 0.0 | 2.0 | 0.00 | 0.31 | 0.00 | 86 | 1008.3 |
| 20260507052704 | 48 | 281 | 1.0 | 2.0 | 0.00 | 0.31 | 0.00 | 86 | 1008.2 |
| 20260507052204 | 49 | 281 | 1.0 | 6.0 | 0.00 | 0.31 | 0.00 | 86 | 1008.4 |
| 20260507051704 | 49 | 267 | 1.0 | 3.0 | 0.00 | 0.31 | 0.00 | 86 | 1008.9 |
| 20260507051204 | 49 | 286 | 1.0 | 2.0 | 0.00 | 0.31 | 0.00 | 86 | 1008.8 |
| 20260507050704 | 49 | 286 | 1.0 | 2.0 | 0.00 | 0.31 | 0.00 | 86 | 1008.6 |
| 20260507045204 | 49 | 298 | 2.0 | 3.0 | 0.00 | 0.31 | 0.00 | 86 | 1008.8 |
| 20260507044704 | 49 | 299 | 0.0 | 2.0 | 0.00 | 0.31 | 0.00 | 86 | 1008.9 |
| 20260507044204 | 49 | 298 | 2.0 | 5.0 | 0.00 | 0.31 | 0.00 | 87 | 1009.0 |
| 20260507043704 | 49 | 312 | 2.0 | 3.0 | 0.00 | 0.31 | 0.00 | 87 | 1009.1 |
| 20260507043204 | 49 | 284 | 1.0 | 2.0 | 0.00 | 0.31 | 0.00 | 87 | 1009.2 |
| 20260507042705 | 49 | 284 | 1.0 | 6.0 | 0.00 | 0.31 | 0.00 | 87 | 1008.9 |
| 20260507042204 | 49 | 296 | 3.0 | 7.0 | 0.00 | 0.31 | 0.00 | 87 | 1008.8 |
| 20260507041704 | 49 | 284 | 2.0 | 7.0 | 0.00 | 0.31 | 0.00 | 87 | 1008.7 |
| 20260507040204 | 49 | 309 | 1.0 | 3.0 | 0.00 | 0.31 | 0.00 | 88 | 1008.5 |
| 20260507035704 | 49 | 309 | 2.0 | 7.0 | 0.00 | 0.31 | 0.31 | 88 | 1008.5 |
| 20260507035204 | 49 | 295 | 1.0 | 3.0 | 0.00 | 0.31 | 0.31 | 88 | 1008.7 |
| 20260507034703 | 49 | 295 | 1.0 | 3.0 | 0.00 | 0.31 | 0.31 | 88 | 1008.3 |
| 20260507033704 | 49 | 294 | 2.0 | 3.0 | 0.00 | 0.31 | 0.31 | 88 | 1008.5 |
| 20260507033203 | 49 | 292 | 0.0 | 2.0 | 0.00 | 0.31 | 0.31 | 88 | 1008.8 |
| 20260507032704 | 49 | 292 | 0.0 | 2.0 | 0.00 | 0.31 | 0.31 | 88 | 1008.8 |
| 20260507032204 | 49 | 292 | 0.0 | 2.0 | 0.00 | 0.31 | 0.31 | 88 | 1008.7 |
| 20260507031204 | 49 | 291 | 2.0 | 3.0 | 0.00 | 0.31 | 0.31 | 88 | 1008.8 |
| 20260507030705 | 49 | 327 | 1.0 | 5.0 | 0.00 | 0.31 | 0.31 | 88 | 1008.9 |
| 20260507025704 | 50 | 316 | 3.0 | 8.0 | 0.00 | 0.31 | 0.31 | 88 | 1009.0 |
| 20260507025205 | 50 | 312 | 3.0 | 5.0 | 0.00 | 0.31 | 0.31 | 88 | 1009.0 |
| 20260507024704 | 50 | 303 | 2.0 | 7.0 | 0.00 | 0.31 | 0.31 | 88 | 1009.0 |
| 20260507024204 | 50 | 292 | 1.0 | 3.0 | 0.00 | 0.31 | 0.31 | 88 | 1008.9 |
| 20260507023703 | 50 | 292 | 1.0 | 2.0 | 0.01 | 0.31 | 0.31 | 88 | 1008.9 |
| 20260507023204 | 50 | 292 | 1.0 | 2.0 | 0.01 | 0.31 | 0.31 | 88 | 1008.9 |
| 20260507022705 | 50 | 294 | 3.0 | 7.0 | 0.01 | 0.31 | 0.31 | 88 | 1008.8 |
| 20260507022203 | 50 | 307 | 0.0 | 2.0 | 0.01 | 0.31 | 0.31 | 88 | 1008.8 |
| 20260507021704 | 50 | 306 | 1.0 | 7.0 | 0.01 | 0.31 | 0.31 | 88 | 1008.8 |
| 20260507021204 | 50 | 317 | 1.0 | 3.0 | 0.02 | 0.31 | 0.31 | 88 | 1008.8 |
| 20260507020704 | 50 | 316 | 1.0 | 3.0 | 0.02 | 0.31 | 0.31 | 88 | 1008.9 |
| 20260507020204 | 51 | 316 | 1.0 | 2.0 | 0.03 | 0.31 | 0.31 | 88 | 1008.8 |
| 20260507015704 | 51 | 316 | 0.0 | 0.0 | 0.03 | 0.31 | 0.31 | 88 | 1008.7 |
| 20260507015204 | 51 | 316 | 0.0 | 0.0 | 0.04 | 0.31 | 0.31 | 88 | 1008.8 |
| 20260507014703 | 51 | 316 | 0.0 | 0.0 | 0.04 | 0.31 | 0.31 | 88 | 1008.8 |
| 20260507014204 | 51 | 316 | 0.0 | 1.0 | 0.04 | 0.31 | 0.31 | 88 | 1008.7 |
| 20260507013204 | 51 | 314 | 0.0 | 1.0 | 0.03 | 0.30 | 0.30 | 87 | 1008.4 |
| 20260507012704 | 51 | 314 | 0.0 | 2.0 | 0.03 | 0.30 | 0.30 | 87 | 1008.3 |
| 20260507011704 | 51 | 314 | 1.0 | 3.0 | 0.03 | 0.30 | 0.30 | 87 | 1008.4 |
| 20260507010204 | 51 | 313 | 1.0 | 3.0 | 0.02 | 0.28 | 0.28 | 87 | 1008.5 |
| 20260507005204 | 51 | 301 | 3.0 | 5.0 | 0.01 | 0.27 | 0.27 | 87 | 1008.3 |
| 20260507004704 | 52 | 16 | 2.0 | 5.0 | 0.01 | 0.27 | 0.27 | 87 | 1008.1 |
| 20260507004203 | 52 | 348 | 1.0 | 3.0 | 0.01 | 0.27 | 0.27 | 87 | 1008.1 |
| 20260507003704 | 52 | 26 | 4.0 | 10.0 | 0.01 | 0.27 | 0.27 | 87 | 1007.7 |
| 20260507003204 | 52 | 321 | 3.0 | 7.0 | 0.01 | 0.27 | 0.27 | 87 | 1007.7 |
| 20260507002704 | 52 | 303 | 2.0 | 7.0 | 0.01 | 0.27 | 0.27 | 87 | 1007.6 |
| 20260507002204 | 53 | 35 | 2.0 | 5.0 | 0.02 | 0.27 | 0.27 | 87 | 1007.3 |
| 20260507001704 | 53 | 341 | 2.0 | 7.0 | 0.02 | 0.27 | 0.27 | 87 | 1007.3 |
| 20260507001204 | 53 | 16 | 2.0 | 5.0 | 0.02 | 0.27 | 0.27 | 87 | 1007.1 |
| 20260507000703 | 54 | 342 | 2.0 | 3.0 | 0.01 | 0.26 | 0.26 | 87 | 1007.0 |
| 20260507000205 | 54 | 268 | 1.0 | 3.0 | 0.01 | 0.26 | 0.26 | 87 | 1007.1 |
| 20260506235704 | 54 | 304 | 1.0 | 6.0 | 0.01 | 0.26 | 0.26 | 87 | 1007.1 |
| 20260506234705 | 55 | 266 | 2.0 | 12.0 | 0.01 | 0.26 | 0.26 | 87 | 1006.6 |
| 20260506234204 | 56 | 343 | 3.0 | 12.0 | 0.01 | 0.26 | 0.26 | 87 | 1006.5 |
| 20260506233704 | 57 | 320 | 2.0 | 7.0 | 0.01 | 0.26 | 0.26 | 87 | 1006.2 |
| 20260506233204 | 59 | 299 | 1.0 | 9.0 | 0.01 | 0.26 | 0.26 | 87 | 1005.9 |
| 20260506232703 | 61 | 248 | 2.0 | 13.0 | 0.01 | 0.26 | 0.26 | 88 | 1005.5 |
| 20260506232204 | 61 | 232 | 1.0 | 3.0 | 0.00 | 0.25 | 0.25 | 88 | 1005.1 |
| 20260506231204 | 61 | 232 | 0.0 | 0.0 | 0.00 | 0.25 | 0.25 | 88 | 1004.7 |
| 20260506230704 | 61 | 232 | 0.0 | 3.0 | 0.00 | 0.25 | 0.25 | 89 | 1004.7 |
| 20260506230204 | 61 | 199 | 0.0 | 1.0 | 0.00 | 0.25 | 0.25 | 89 | 1004.6 |
| 20260506225704 | 61 | 199 | 0.0 | 2.0 | 0.00 | 0.25 | 0.25 | 89 | 1004.6 |
| 20260506225204 | 61 | 199 | 0.0 | 1.0 | 0.00 | 0.25 | 0.25 | 89 | 1004.4 |
| 20260506224704 | 61 | 199 | 0.0 | 0.0 | 0.00 | 0.25 | 0.25 | 88 | 1004.6 |
| 20260506224204 | 61 | 199 | 0.0 | 1.0 | 0.00 | 0.25 | 0.25 | 88 | 1004.6 |
| 20260506223704 | 61 | 199 | 1.0 | 3.0 | 0.00 | 0.25 | 0.25 | 89 | 1004.6 |
| 20260506223204 | 61 | 198 | 0.0 | 0.0 | 0.00 | 0.25 | 0.25 | 89 | 1004.5 |
| 20260506222704 | 61 | 198 | 0.0 | 1.0 | 0.00 | 0.25 | 0.25 | 89 | 1004.5 |
| 20260506222204 | 61 | 198 | 0.0 | 1.0 | 0.00 | 0.25 | 0.25 | 89 | 1004.5 |
| 20260506221704 | 61 | 201 | 0.0 | 1.0 | 0.00 | 0.25 | 0.25 | 89 | 1004.5 |
| 20260506221204 | 61 | 201 | 0.0 | 2.0 | 0.00 | 0.25 | 0.25 | 89 | 1004.5 |
| 20260506220704 | 61 | 201 | 0.0 | 0.0 | 0.00 | 0.25 | 0.25 | 89 | 1004.5 |
| 20260506220204 | 61 | 201 | 0.0 | 1.0 | 0.00 | 0.25 | 0.25 | 88 | 1004.5 |
| 20260506215704 | 61 | 201 | 0.0 | 0.0 | 0.00 | 0.25 | 0.25 | 88 | 1004.5 |
| 20260506215204 | 61 | 201 | 0.0 | 0.0 | 0.00 | 0.25 | 0.25 | 88 | 1004.5 |
| 20260506214704 | 61 | 201 | 0.0 | 0.0 | 0.00 | 0.25 | 0.25 | 88 | 1004.6 |
| 20260506214205 | 61 | 201 | 0.0 | 1.0 | 0.00 | 0.25 | 0.25 | 88 | 1004.5 |
| 20260506213204 | 61 | 201 | 0.0 | 0.0 | 0.00 | 0.25 | 0.25 | 88 | 1004.5 |
| 20260506212704 | 61 | 201 | 0.0 | 1.0 | 0.00 | 0.25 | 0.25 | 88 | 1004.5 |
| 20260506212204 | 61 | 201 | 0.0 | 0.0 | 0.00 | 0.25 | 0.25 | 88 | 1004.5 |
| 20260506211704 | 61 | 201 | 0.0 | 0.0 | 0.00 | 0.25 | 0.25 | 88 | 1004.5 |
| 20260506211204 | 61 | 201 | 0.0 | 2.0 | 0.00 | 0.25 | 0.25 | 88 | 1004.4 |
| 20260506210704 | 61 | 201 | 0.0 | 2.0 | 0.00 | 0.25 | 0.25 | 88 | 1004.4 |
| 20260506210203 | 61 | 201 | 0.0 | 3.0 | 0.00 | 0.25 | 0.25 | 88 | 1004.4 |
| 20260506205704 | 61 | 203 | 1.0 | 3.0 | 0.01 | 0.25 | 0.25 | 88 | 1004.4 |
| 20260506205204 | 61 | 137 | 0.0 | 3.0 | 0.01 | 0.25 | 0.25 | 88 | 1004.4 |
| 20260506204704 | 61 | 237 | 0.0 | 2.0 | 0.01 | 0.25 | 0.25 | 88 | 1004.5 |
| 20260506203704 | 61 | 177 | 0.0 | 2.0 | 0.01 | 0.25 | 0.25 | 88 | 1004.7 |
| 20260506203204 | 61 | 139 | 0.0 | 1.0 | 0.02 | 0.25 | 0.25 | 88 | 1004.6 |
| 20260506202704 | 61 | 138 | 0.0 | 0.0 | 0.02 | 0.25 | 0.25 | 88 | 1004.5 |
| 20260506202203 | 61 | 138 | 0.0 | 3.0 | 0.03 | 0.25 | 0.25 | 88 | 1004.5 |
| 20260506201704 | 61 | 174 | 0.0 | 3.0 | 0.03 | 0.25 | 0.25 | 88 | 1004.5 |
| 20260506201204 | 61 | 184 | 0.0 | 1.0 | 0.05 | 0.25 | 0.25 | 88 | 1004.6 |
| 20260506200704 | 61 | 218 | 0.0 | 1.0 | 0.06 | 0.25 | 0.25 | 88 | 1004.6 |
| 20260506200204 | 61 | 218 | 1.0 | 3.0 | 0.07 | 0.25 | 0.25 | 88 | 1004.8 |
| 20260506195704 | 61 | 147 | 0.0 | 3.0 | 0.07 | 0.24 | 0.24 | 88 | 1004.7 |
| 20260506195203 | 61 | 151 | 0.0 | 1.0 | 0.07 | 0.24 | 0.24 | 88 | 1004.9 |
| 20260506194704 | 61 | 151 | 0.0 | 2.0 | 0.08 | 0.24 | 0.24 | 88 | 1004.9 |
| 20260506193704 | 62 | 220 | 2.0 | 6.0 | 0.09 | 0.24 | 0.24 | 88 | 1005.0 |
| 20260506193204 | 62 | 260 | 0.0 | 2.0 | 0.08 | 0.23 | 0.23 | 88 | 1005.0 |
| 20260506192704 | 62 | 264 | 1.0 | 3.0 | 0.09 | 0.23 | 0.23 | 88 | 1005.0 |
| 20260506192204 | 62 | 203 | 0.0 | 2.0 | 0.08 | 0.22 | 0.22 | 88 | 1005.1 |
| 20260506191704 | 62 | 204 | 1.0 | 2.0 | 0.09 | 0.22 | 0.22 | 88 | 1005.1 |
| 20260506190704 | 62 | 234 | 0.0 | 2.0 | 0.06 | 0.19 | 0.19 | 88 | 1005.1 |
| 20260506190204 | 62 | 234 | 1.0 | 7.0 | 0.05 | 0.18 | 0.18 | 87 | 1005.1 |
| 20260506185704 | 62 | 176 | 2.0 | 3.0 | 0.04 | 0.17 | 0.17 | 87 | 1005.1 |
| 20260506184204 | 62 | 185 | 1.0 | 3.0 | 0.04 | 0.16 | 0.16 | 87 | 1005.1 |
| 20260506183704 | 62 | 147 | 0.0 | 3.0 | 0.04 | 0.15 | 0.15 | 87 | 1005.1 |
| 20260506183204 | 62 | 164 | 1.0 | 3.0 | 0.04 | 0.15 | 0.15 | 87 | 1005.1 |
| 20260506182204 | 62 | 158 | 1.0 | 2.0 | 0.03 | 0.14 | 0.14 | 87 | 1005.2 |
| 20260506181704 | 62 | 237 | 1.0 | 3.0 | 0.03 | 0.13 | 0.13 | 87 | 1005.2 |
| 20260506181203 | 62 | 289 | 0.0 | 2.0 | 0.03 | 0.13 | 0.13 | 87 | 1005.3 |
| 20260506180704 | 62 | 289 | 0.0 | 3.0 | 0.03 | 0.13 | 0.13 | 87 | 1005.4 |
| 20260506175704 | 62 | 228 | 0.0 | 1.0 | 0.05 | 0.13 | 0.13 | 87 | 1005.4 |
| 20260506174703 | 62 | 239 | 1.0 | 2.0 | 0.06 | 0.12 | 0.12 | 87 | 1005.5 |
| 20260506174204 | 62 | 239 | 0.0 | 3.0 | 0.07 | 0.12 | 0.12 | 87 | 1005.5 |
| 20260506173704 | 62 | 143 | 1.0 | 2.0 | 0.07 | 0.11 | 0.11 | 87 | 1005.6 |
| 20260506172704 | 63 | 141 | 1.0 | 3.0 | 0.09 | 0.11 | 0.11 | 87 | 1005.4 |
| 20260506172204 | 63 | 137 | 0.0 | 1.0 | 0.09 | 0.11 | 0.11 | 87 | 1005.5 |
| 20260506171704 | 63 | 136 | 0.0 | 2.0 | 0.09 | 0.10 | 0.10 | 87 | 1005.6 |
| 20260506171204 | 62 | 135 | 1.0 | 2.0 | 0.09 | 0.10 | 0.10 | 86 | 1005.7 |
| 20260506170704 | 62 | 134 | 0.0 | 2.0 | 0.09 | 0.10 | 0.10 | 86 | 1005.8 |
| 20260506170204 | 62 | 133 | 1.0 | 3.0 | 0.09 | 0.09 | 0.09 | 86 | 1005.9 |
| 20260506165704 | 62 | 214 | 1.0 | 3.0 | 0.08 | 0.08 | 0.08 | 85 | 1006.2 |
| 20260506165204 | 62 | 165 | 1.0 | 3.0 | 0.07 | 0.07 | 0.07 | 85 | 1006.4 |
| 20260506164704 | 62 | 139 | 1.0 | 3.0 | 0.06 | 0.06 | 0.06 | 85 | 1006.4 |
| 20260506164204 | 62 | 139 | 1.0 | 3.0 | 0.05 | 0.05 | 0.05 | 84 | 1006.6 |
| 20260506163705 | 63 | 135 | 1.0 | 2.0 | 0.04 | 0.04 | 0.04 | 84 | 1006.6 |
| 20260506163204 | 63 | 136 | 1.0 | 3.0 | 0.04 | 0.04 | 0.04 | 83 | 1006.7 |
| 20260506162704 | 63 | 216 | 1.0 | 3.0 | 0.02 | 0.02 | 0.02 | 83 | 1006.6 |
| 20260506162204 | 63 | 126 | 0.0 | 2.0 | 0.02 | 0.02 | 0.02 | 82 | 1006.5 |
| 20260506161205 | 63 | 127 | 1.0 | 5.0 | 0.01 | 0.01 | 0.01 | 81 | 1006.6 |
| 20260506160203 | 64 | 136 | 1.0 | 3.0 | 0.00 | 0.00 | 0.00 | 80 | 1006.8 |
| 20260506155704 | 64 | 160 | 1.0 | 3.0 | 0.00 | 0.00 | 0.00 | 79 | 1006.8 |
| 20260506154705 | 64 | 103 | 1.0 | 7.0 | 0.00 | 0.00 | 0.00 | 79 | 1006.9 |
| 20260506154204 | 64 | 194 | 1.0 | 7.0 | 0.00 | 0.00 | 0.00 | 79 | 1006.9 |
| 20260506153704 | 65 | 127 | 1.0 | 3.0 | 0.00 | 0.00 | 0.00 | 78 | 1006.8 |
| 20260506153204 | 65 | 156 | 1.0 | 2.0 | 0.00 | 0.00 | 0.00 | 78 | 1006.8 |
| 20260506152204 | 65 | 236 | 1.0 | 3.0 | 0.00 | 0.00 | 0.00 | 76 | 1006.9 |
| 20260506151203 | 66 | 142 | 1.0 | 2.0 | 0.00 | 0.00 | 0.00 | 74 | 1007.1 |
| 20260506150704 | 66 | 147 | 1.0 | 2.0 | 0.00 | 0.00 | 0.00 | 74 | 1007.0 |
| 20260506150205 | 66 | 140 | 1.0 | 3.0 | 0.00 | 0.00 | 0.00 | 74 | 1007.1 |
| 20260506145704 | 66 | 131 | 1.0 | 3.0 | 0.00 | 0.00 | 0.00 | 74 | 1007.2 |
| 20260506145205 | 66 | 124 | 1.0 | 3.0 | 0.00 | 0.00 | 0.00 | 74 | 1007.3 |
| 20260506144204 | 66 | 121 | 1.0 | 7.0 | 0.00 | 0.00 | 0.00 | 73 | 1007.4 |
| 20260506143704 | 66 | 149 | 1.0 | 3.0 | 0.00 | 0.00 | 0.00 | 74 | 1007.4 |
| 20260506143203 | 66 | 224 | 1.0 | 2.0 | 0.00 | 0.00 | 0.00 | 74 | 1007.4 |
| 20260506142705 | 66 | 198 | 1.0 | 2.0 | 0.00 | 0.00 | 0.00 | 74 | 1007.4 |
| 20260506141704 | 66 | 149 | 2.0 | 6.0 | 0.00 | 0.00 | 0.00 | 73 | 1007.3 |
| 20260506141205 | 66 | 156 | 1.0 | 7.0 | 0.00 | 0.00 | 0.00 | 73 | 1007.4 |
| 20260506140205 | 66 | 192 | 1.0 | 2.0 | 0.00 | 0.00 | 0.00 | 73 | 1007.4 |
| 20260506135705 | 66 | 194 | 2.0 | 5.0 | 0.00 | 0.00 | 0.00 | 73 | 1007.3 |
| 20260506135205 | 66 | 214 | 1.0 | 3.0 | 0.00 | 0.00 | 0.00 | 73 | 1007.3 |
| 20260506134205 | 66 | 214 | 1.0 | 10.0 | 0.00 | 0.00 | 0.00 | 73 | 1007.2 |
| 20260506133705 | 66 | 211 | 3.0 | 8.0 | 0.00 | 0.00 | 0.00 | 73 | 1007.3 |
| 20260506133205 | 66 | 128 | 1.0 | 3.0 | 0.00 | 0.00 | 0.00 | 73 | 1007.1 |
| 20260506132205 | 66 | 184 | 1.0 | 3.0 | 0.00 | 0.00 | 0.00 | 74 | 1007.0 |
| 20260506131705 | 65 | 190 | 2.0 | 8.0 | 0.00 | 0.00 | 0.00 | 74 | 1007.0 |
| 20260506131205 | 65 | 160 | 1.0 | 3.0 | 0.00 | 0.00 | 0.00 | 74 | 1007.1 |
| 20260506130205 | 65 | 162 | 2.0 | 5.0 | 0.00 | 0.00 | 0.00 | 75 | 1007.0 |
| 20260506125705 | 65 | 187 | 2.0 | 5.0 | 0.00 | 0.00 | 0.00 | 75 | 1007.1 |
| 20260506125205 | 65 | 154 | 1.0 | 5.0 | 0.00 | 0.00 | 0.00 | 75 | 1007.1 |
| 20260506124706 | 64 | 206 | 2.0 | 7.0 | 0.00 | 0.00 | 0.00 | 75 | 1007.5 |
| 20260506124205 | 64 | 128 | 1.0 | 3.0 | 0.00 | 0.00 | 0.00 | 76 | 1007.5 |
| 20260506123706 | 64 | 130 | 2.0 | 6.0 | 0.00 | 0.00 | 0.00 | 76 | 1007.5 |
| 20260506123204 | 64 | 211 | 2.0 | 7.0 | 0.00 | 0.00 | 0.00 | 75 | 1007.5 |
| 20260506122705 | 64 | 199 | 1.0 | 3.0 | 0.00 | 0.00 | 0.00 | 76 | 1007.6 |
| 20260506122204 | 64 | 199 | 2.0 | 9.0 | 0.00 | 0.00 | 0.00 | 76 | 1007.6 |
| 20260506121705 | 64 | 333 | 2.0 | 7.0 | 0.00 | 0.00 | 0.00 | 76 | 1007.7 |
| 20260506121208 | 64 | 167 | 1.0 | 5.0 | 0.00 | 0.00 | 0.00 | 76 | 1007.8 |
| 20260506120205 | 63 | 145 | 1.0 | 3.0 | 0.00 | 0.00 | 0.00 | 77 | 1007.6 |
| 20260506115707 | 63 | 149 | 2.0 | 3.0 | 0.00 | 0.00 | 0.00 | 77 | 1007.7 |
| 20260506115205 | 63 | 213 | 2.0 | 7.0 | 0.00 | 0.00 | 0.00 | 76 | 1007.6 |
| 20260506114704 | 63 | 180 | 1.0 | 2.0 | 0.00 | 0.00 | 0.00 | 77 | 1007.5 |
| 20260506114205 | 63 | 180 | 1.0 | 3.0 | 0.00 | 0.00 | 0.00 | 76 | 1007.4 |
| 20260506113705 | 63 | 204 | 1.0 | 3.0 | 0.00 | 0.00 | 0.00 | 76 | 1007.6 |
| 20260506113204 | 63 | 172 | 1.0 | 7.0 | 0.00 | 0.00 | 0.00 | 76 | 1007.5 |
| 20260506112205 | 63 | 202 | 1.0 | 8.0 | 0.00 | 0.00 | 0.00 | 76 | 1007.6 |
| 20260506111704 | 63 | 168 | 1.0 | 5.0 | 0.00 | 0.00 | 0.00 | 76 | 1007.4 |
| 20260506111205 | 63 | 203 | 2.0 | 6.0 | 0.00 | 0.00 | 0.00 | 76 | 1007.6 |
| 20260506110705 | 63 | 157 | 2.0 | 3.0 | 0.00 | 0.00 | 0.00 | 76 | 1007.5 |
| 20260506110205 | 63 | 203 | 1.0 | 5.0 | 0.00 | 0.00 | 0.00 | 76 | 1007.4 |
| 20260506105705 | 63 | 135 | 2.0 | 3.0 | 0.00 | 0.00 | 0.00 | 75 | 1007.3 |
| 20260506105204 | 63 | 149 | 2.0 | 3.0 | 0.00 | 0.00 | 0.00 | 75 | 1007.3 |
| 20260506104705 | 63 | 152 | 2.0 | 3.0 | 0.00 | 0.00 | 0.00 | 75 | 1007.3 |
| 20260506104205 | 63 | 198 | 2.0 | 10.0 | 0.00 | 0.00 | 0.00 | 75 | 1007.3 |
| 20260506103705 | 63 | 174 | 2.0 | 6.0 | 0.00 | 0.00 | 0.00 | 74 | 1007.4 |
| 20260506103205 | 63 | 143 | 1.0 | 3.0 | 0.00 | 0.00 | 0.00 | 74 | 1007.7 |
| 20260506102704 | 63 | 136 | 2.0 | 3.0 | 0.00 | 0.00 | 0.00 | 74 | 1007.5 |
| 20260506102205 | 63 | 133 | 1.0 | 5.0 | 0.00 | 0.00 | 0.00 | 74 | 1007.5 |
| 20260506101705 | 63 | 144 | 1.0 | 3.0 | 0.00 | 0.00 | 0.00 | 74 | 1007.5 |
| 20260506101205 | 63 | 147 | 1.0 | 2.0 | 0.00 | 0.00 | 0.00 | 74 | 1007.3 |
| 20260506100205 | 63 | 43 | 1.0 | 3.0 | 0.00 | 0.00 | 0.00 | 74 | 1007.3 |
| 20260506095705 | 63 | 45 | 2.0 | 6.0 | 0.00 | 0.00 | 0.00 | 74 | 1007.3 |
| 20260506095205 | 62 | 154 | 2.0 | 3.0 | 0.00 | 0.00 | 0.00 | 74 | 1007.2 |
| 20260506094704 | 62 | 170 | 1.0 | 5.0 | 0.00 | 0.00 | 0.00 | 74 | 1007.1 |
| 20260506094205 | 62 | 165 | 1.0 | 2.0 | 0.00 | 0.00 | 0.00 | 73 | 1007.0 |
| 20260506093704 | 63 | 164 | 1.0 | 5.0 | 0.00 | 0.00 | 0.00 | 73 | 1007.2 |
| 20260506092205 | 62 | 170 | 1.0 | 3.0 | 0.00 | 0.00 | 0.00 | 73 | 1007.1 |
| 20260506091705 | 62 | 141 | 1.0 | 3.0 | 0.00 | 0.00 | 0.00 | 73 | 1006.9 |
| 20260506091204 | 62 | 230 | 1.0 | 3.0 | 0.00 | 0.00 | 0.00 | 73 | 1007.1 |